Tiempo atmosférico en la estación meteorológica de Azpeitia, Gipuzkoa (180 m.)



Fecha
DESCASC
Temp. máxima en grados centígrados (hora)
DESCASC
Temp. mínima en grados centígrados (hora)
DESCASC
Temp. media en grados centígrados
DESCASC
Racha de viento máxima en m/sg (hora)
DESCASC
Velocidad máxima media en intervalos de 10 minutos(hora)
DESCASC
Precipitaciones diarias en mm
DESCASC
Precipitaciones de 00:00 a 06:00 en mm
DESCASC
Precipitaciones de 06:00 a 12:00 en mm
DESCASC
Precipitaciones de 12:00 a 18:00 en mm
DESCASC
Precipitaciones de 18:00 a 24:00 en mm
DESCASC
02-04-2020 16.3 (13:20) 7.7 (23:59) 12 5.28 (15:20) 2.5 (22:20) 0 0 0 0 0
01-04-2020 16.1 (15:10) 6.1 (00:20) 11.1 7.78 (15:20) 3.06 (15:20) 0 0 0 0 0
31-03-2020 7.5 (16:50) 1.9 (00:00) 4.7 4.44 (16:50) 1.67 (22:40) 3 0 1.4 1 0.6
30-03-2020 6.8 (15:40) 1.1 (00:00) 4 8.06 (07:30) 3.61 (07:30) 10.6 1 4.6 3.8 1.2
29-03-2020 14.8 (14:20) 2.9 (00:00) 8.9 7.22 (23:10) 3.61 (23:00) 3.8 0 0 0.6 3.2
28-03-2020 16.7 (12:40) 2.2 (00:00) 9.5 5.56 (15:50) 1.94 (11:50) 0 0 0 0 0
27-03-2020 14.8 (14:30) 0.5 (00:00) 7.7 6.39 (17:20) 2.22 (16:30) 0 0 0 0 0
26-03-2020 12.3 (16:00) 3.7 (00:00) 8 10.28 (04:20) 6.67 (03:50) 0 0 0 0 0
25-03-2020 16.4 (12:20) 5.3 (00:00) 10.8 8.89 (13:20) 2.78 (17:10) 0 0 0 0 0
24-03-2020 19.3 (13:50) 7.7 (00:00) 13.5 5.28 (16:50) 2.22 (19:30) 0 0 0 0 0
23-03-2020 17.1 (15:00) 9.5 (00:00) 13.3 5.56 (14:30) 2.22 (14:30) 0.4 0 0.2 0 0.2
22-03-2020 17.9 (12:50) 6.2 (07:50) 12 6.67 (15:40) 2.5 (15:20) 0 0 0 0 0
21-03-2020 20.1 (15:40) 9.7 (00:00) 14.9 7.78 (00:40) 3.06 (07:10) 0 0 0 0 0
20-03-2020 18.7 (16:20) 13.5 (00:00) 16.1 11.11 (12:50) 4.72 (12:10) 0 0 0 0 0
19-03-2020 21.8 (14:50) 11 (00:00) 16.4 7.22 (23:30) 3.06 (12:20) 0 0 0 0 0
18-03-2020 21.5 (15:00) 7.8 (00:00) 14.7 4.44 (18:50) 1.67 (19:00) 0 0 0 0 0
17-03-2020 12.7 (18:00) 9.6 (00:00) 11.2 3.89 (01:10) 1.67 (08:10) 4.2 4 0.2 0 0
16-03-2020 10.2 (14:50) 7 (00:00) 8.6 8.89 (05:10) 4.72 (09:10) 65.8 19 32 8.2 6.6
15-03-2020 21.6 (13:30) 3.2 (00:00) 12.4 9.17 (14:40) 4.44 (22:30) 11.4 0 0 0 11.4
14-03-2020 15.1 (15:10) 2.3 (00:00) 8.7 4.72 (13:40) 2.22 (13:40) 0 0 0 0 0
13-03-2020 13.6 (16:50) 5.7 (23:50) 9.7 5.56 (13:20) 2.22 (13:20) 2.6 1.8 0.8 0 0
12-03-2020 13.1 (15:00) 9.2 (00:00) 11.2 3.89 (21:10) 1.67 (18:00) 3.6 0 0.2 0.2 3.2
11-03-2020 18.9 (15:00) 5 (00:00) 11.9 7.5 (14:20) 2.78 (19:20) 0 0 0 0 0
10-03-2020 16 (14:10) 4.9 (00:00) 10.5 6.39 (15:50) 2.22 (15:40) 0.2 0 0.2 0 0
09-03-2020 11.7 (11:30) 7.2 (00:00) 9.4 10 (15:20) 4.72 (15:20) 7.6 2 1.4 4.2 0
08-03-2020 15.7 (15:00) 2.6 (00:00) 9.1 8.89 (18:30) 4.17 (23:20) 0.2 0 0 0 0.2
07-03-2020 11.7 (16:40) 5.3 (00:00) 8.5 15.28 (01:40) 5 (03:30) 13 6.8 4.4 1.8 0
06-03-2020 9.2 (12:50) 4.8 (00:00) 7 18.06 (14:10) 6.94 (19:30) 27.6 1.8 13.4 7.2 5.2
05-03-2020 17.1 (04:50) 8.3 (00:00) 12.7 16.67 (07:30) 5.83 (07:10) 16.4 0 12.6 2.4 1.4

Gráficas

Temp. máximas Temp. mínimas Temp. medias Precipitaciones Rachas de viento máximas Velocidades máximas media en intervalos de 10 minutos

Datos horarios

Fecha y hora oficial Temperatura (ºC) Velocidad del viento (km/h) Dirección del viento Racha (km/h) Dirección de racha Precipitación (mm) Presión (hPa) Tendencia (hPa) Humedad (%)
2020-04-03 23:00:00 6.2 4 Sudoeste 8 Sudeste 0 -- -- 64
2020-04-03 22:00:00 8.1 0 Calma 10 Sudoeste 0 -- -- 55
2020-04-03 21:00:00 9.5 4 Nordeste 13 Norte 0 -- -- 47
2020-04-03 20:00:00 10.9 5 Nordeste 16 Norte 0 -- -- 42
2020-04-03 19:00:00 13 6 Nordeste 18 Norte 0 -- -- 36
2020-04-03 18:00:00 14.1 5 Nordeste 23 Nordeste 0 -- -- 33
2020-04-03 17:00:00 15 5 Nordeste 17 Este 0 -- -- 32
2020-04-03 16:00:00 14.9 6 Nordeste 17 Nordeste 0 -- -- 35
2020-04-03 15:00:00 14.8 5 Norte 14 Noroeste 0 -- -- 36
2020-04-03 14:00:00 13.6 6 Este 15 Norte 0 -- -- 35
2020-04-03 13:00:00 12.8 5 Nordeste 13 Norte 0 -- -- 37
2020-04-03 12:00:00 8.8 3 Sur 6 Sudeste 0 -- -- 58
2020-04-03 11:00:00 7.6 2 Nordeste 5 Nordeste 0 -- -- 72
2020-04-03 10:00:00 4.1 0 Calma 5 Noroeste 0 -- -- 83
2020-04-03 09:00:00 3.1 2 Este 4 Este 0 -- -- 83
2020-04-03 08:00:00 2.9 3 Oeste 4 Oeste 0 -- -- 82
2020-04-03 07:00:00 3.3 2 Sur 4 Sudoeste 0 -- -- 81
2020-04-03 06:00:00 3.9 0 Calma 4 Oeste 0 -- -- 80
2020-04-03 05:00:00 4.5 0 Calma 4 Sur 0 -- -- 79
2020-04-03 04:00:00 5.3 3 Sur 7 Sudoeste 0 -- -- 75
2020-04-03 03:00:00 5.7 2 Sudeste 5 Sudoeste 0 -- -- 75
2020-04-03 02:00:00 6.2 2 Oeste 5 Sur 0 -- -- 73
2020-04-03 01:00:00 6.9 0 Calma 5 Sudoeste 0 -- -- 69
2020-04-03 00:00:00 7.7 3 Oeste 14 Sudoeste 0 -- -- 66
2020-04-02 23:00:00 8.9 6 Oeste 19 Oeste 0 -- -- 59
2020-04-02 22:00:00 9.5 4 Oeste 19 Noroeste 0 -- -- 50
2020-04-02 21:00:00 10 4 Noroeste 15 Norte 0 -- -- 53
2020-04-02 20:00:00 11 5 Norte 18 Norte 0 -- -- 54
2020-04-02 19:00:00 12.6 6 Norte 16 Norte 0 -- -- 51
2020-04-02 18:00:00 13.6 6 Nordeste 18 Norte 0 -- -- 50
2020-04-02 17:00:00 14.2 6 Nordeste 17 Nordeste 0 -- -- 50
2020-04-02 16:00:00 14.8 6 Nordeste 19 Norte 0 -- -- 48
2020-04-02 15:00:00 16.2 6 Nordeste 18 Este 0 -- -- 41
2020-04-02 14:00:00 15.5 5 Nordeste 14 Norte 0 -- -- 44
2020-04-02 13:00:00 15.4 7 Nordeste 18 Nordeste 0 -- -- 51
2020-04-02 12:00:00 11.8 3 Nordeste 7 Norte 0 -- -- 74
2020-04-02 11:00:00 9.6 2 Norte 5 Sudeste 0 -- -- 83
2020-04-02 10:00:00 8.7 0 Calma 5 Este 0 -- -- 84
2020-04-02 09:00:00 8.3 0 Calma 6 Sudoeste 0 -- -- 84
2020-04-02 08:00:00 8.2 0 Calma 4 Este 0 -- -- 83
2020-04-02 07:00:00 8.4 0 Calma 4 Oeste 0 -- -- 82
2020-04-02 06:00:00 9 0 Calma 5 Este 0 -- -- 81
2020-04-02 05:00:00 9.6 2 Sudoeste 4 Sudoeste 0 -- -- 80
2020-04-02 04:00:00 9.8 0 Calma 4 Este 0 -- -- 79
2020-04-02 03:00:00 9.9 0 Calma 4 Sudeste 0 -- -- 78
2020-04-02 02:00:00 10.2 0 Calma 4 Este 0 -- -- 77
2020-04-02 01:00:00 10.3 2 Sur 6 Sudeste 0 -- -- 76
2020-04-02 00:00:00 10.7 3 Este 6 Este 0 -- -- 74
2020-04-01 23:00:00 11.4 0 Calma 7 Sudoeste 0 -- -- 70
2020-04-01 22:00:00 11.9 4 Sudoeste 5 Sudoeste 0 -- -- 62
2020-04-01 21:00:00 12.4 2 Sur 4 Este 0 -- -- 59
2020-04-01 20:00:00 13.2 0 Calma 12 Sudoeste 0 -- -- 55
2020-04-01 19:00:00 14.1 6 Sudoeste 12 Sur 0 -- -- 46
2020-04-01 18:00:00 14.9 4 Sudeste 12 Sudeste 0 -- -- 41
2020-04-01 17:00:00 14.7 5 Sur 19 Sudoeste 0 -- -- 44
2020-04-01 16:00:00 15.4 5 Sudoeste 28 Sudoeste 0 -- -- 39
2020-04-01 15:00:00 15.8 5 Sudoeste 15 Sudeste 0 -- -- 39
2020-04-01 14:00:00 14.8 5 Sur 25 Sudeste 0 -- -- 42
2020-04-01 13:00:00 14.5 7 Este 17 Sudeste 0 -- -- 43
2020-04-01 12:00:00 13.4 3 Nordeste 7 Sudeste 0 -- -- 62
2020-04-01 11:00:00 10.7 2 Este 4 Este 0 -- -- 81
2020-04-01 10:00:00 8.1 2 Nordeste 4 Sudeste 0 -- -- 85
2020-04-01 09:00:00 7.1 2 Oeste 6 Oeste 0 -- -- 85
2020-04-01 08:00:00 6.6 2 Oeste 5 Oeste 0 -- -- 85
2020-04-01 07:00:00 6.4 0 Calma 7 Sudeste 0 -- -- 85
2020-04-01 06:00:00 6.2 2 Sudoeste 5 Sudeste 0 -- -- 85
2020-04-01 05:00:00 6.2 0 Calma 5 Este 0 -- -- 85
2020-04-01 04:00:00 6.1 5 Sudoeste 7 Oeste 0 -- -- 85
2020-04-01 03:00:00 6.1 3 Sudeste 6 Sudoeste 0 -- -- 85
2020-04-01 02:00:00 6.2 3 Sudoeste 6 Sudoeste 0 -- -- 84
2020-04-01 01:00:00 6.2 0 Calma 4 Sudoeste 0 -- -- 84
2020-04-01 00:00:00 6.2 4 Sudoeste 7 Sudoeste 0 -- -- 84
2020-03-31 23:00:00 6.2 3 Sur 8 Sudoeste 0 -- -- 83
2020-03-31 22:00:00 6.3 0 Calma 4 Sudeste 0 -- -- 82
2020-03-31 21:00:00 6.8 2 Sudeste 8 Oeste 0.2 -- -- 81
2020-03-31 20:00:00 7 4 Noroeste 9 Norte 0 -- -- 80
2020-03-31 19:00:00 7 4 Norte 13 Nordeste 0.4 -- -- 80
2020-03-31 18:00:00 7.1 3 Nordeste 13 Este 0.2 -- -- 77
2020-03-31 17:00:00 7.4 4 Norte 16 Noroeste 0 -- -- 77
2020-03-31 16:00:00 7.2 4 Norte 13 Norte 0.2 -- -- 77
2020-03-31 15:00:00 6.7 3 Norte 9 Norte 0 -- -- 74
2020-03-31 14:00:00 5.8 2 Noroeste 5 Noroeste 0.2 -- -- 76
2020-03-31 13:00:00 4.5 3 Norte 5 Noroeste 0.4 -- -- 80
2020-03-31 12:00:00 3.8 2 Noroeste 4 Oeste 0.2 -- -- 81
2020-03-31 11:00:00 3.2 2 Norte 4 Oeste 0 -- -- 82
2020-03-31 10:00:00 2.5 2 Noroeste 4 Noroeste 0.2 -- -- 83
2020-03-31 09:00:00 2.1 2 Noroeste 4 Sudeste 0 -- -- 83
2020-03-31 08:00:00 2 3 Sudeste 5 Sudoeste 0.6 -- -- 83
2020-03-31 07:00:00 2.1 2 Sudeste 8 Oeste 0.4 -- -- 83
2020-03-31 06:00:00 2.1 0 Calma 4 Sudeste 0 -- -- 83
2020-03-31 05:00:00 2.1 2 Este 4 Este 0 -- -- 84
2020-03-31 04:00:00 2.2 3 Sudoeste 5 Sudoeste 0 -- -- 83
2020-03-31 03:00:00 2.1 0 Calma 3 Sudeste 0 -- -- 83
2020-03-31 02:00:00 2.1 3 Sudeste 9 Sudoeste 0 -- -- 83
2020-03-31 01:00:00 2.1 2 Sur 6 Sudeste 0 -- -- 82
2020-03-31 00:00:00 2.8 3 Sudeste 6 Sudoeste 0 -- -- 81
2020-03-30 23:00:00 3.1 3 Oeste 6 Oeste 0 -- -- 82
2020-03-30 22:00:00 3.1 0 Calma 6 Sudeste 0 -- -- 80
2020-03-30 21:00:00 3.6 4 Sudoeste 8 Sudoeste 0.2 -- -- 79
2020-03-30 20:00:00 3.7 5 Sur 13 Sudoeste 0.6 -- -- 76
2020-03-30 19:00:00 4.6 3 Noroeste 9 Este 0.4 -- -- 73
2020-03-30 18:00:00 5 3 Nordeste 12 Nordeste 0 -- -- 70
2020-03-30 17:00:00 5.1 5 Norte 21 Oeste 0.2 -- -- 69
2020-03-30 16:00:00 6.6 4 Norte 13 Nordeste 0 -- -- 59
2020-03-30 15:00:00 6 4 Este 12 Sudeste 0 -- -- 62
2020-03-30 14:00:00 4.4 4 Nordeste 9 Nordeste 0 -- -- 78
2020-03-30 13:00:00 1.5 2 Norte 12 Sur 3.6 -- -- 82
2020-03-30 12:00:00 1.8 5 Oeste 17 Noroeste 3.6 -- -- 88
2020-03-30 11:00:00 5 4 Norte 22 Norte 0 -- -- 73
2020-03-30 10:00:00 3.6 5 Nordeste 18 Norte 0 -- -- 89
2020-03-30 09:00:00 3.1 7 Norte 23 Este 0.6 -- -- 89
2020-03-30 08:00:00 3.5 5 Norte 29 Noroeste 0.4 -- -- 82
2020-03-30 07:00:00 3.9 4 Sudoeste 24 Sudoeste 0 -- -- 84
2020-03-30 06:00:00 3.4 4 Sudoeste 9 Sudoeste 0.2 -- -- 93
2020-03-30 05:00:00 3.5 0 Calma 4 Este 0 -- -- 92
2020-03-30 04:00:00 3.7 2 Sur 9 Sudeste 0 -- -- 88
2020-03-30 03:00:00 4 2 Sudoeste 15 Norte 0.4 -- -- 89
2020-03-30 02:00:00 4.5 6 Este 19 Norte 0.4 -- -- 86
2020-03-30 01:00:00 4.9 6 Nordeste 22 Este 0 -- -- 91
2020-03-30 00:00:00 5.2 6 Norte 26 Norte 1 -- -- 92
2020-03-29 23:00:00 6 13 Norte 26 Norte 1.2 -- -- 91
2020-03-29 22:00:00 6.9 7 Norte 20 Norte 0.6 -- -- 90
2020-03-29 21:00:00 8 6 Norte 19 Nordeste 0.2 -- -- 86
2020-03-29 20:00:00 8.5 9 Norte 22 Norte 0.2 -- -- 86
2020-03-29 19:00:00 9.1 4 Norte 22 Norte 0 -- -- 84
2020-03-29 18:00:00 9.3 8 Norte 19 Norte 0 -- -- 84
2020-03-29 17:00:00 9.4 8 Norte 23 Norte 0.2 -- -- 87
2020-03-29 16:00:00 10.1 5 Nordeste 18 Nordeste 0.4 -- -- 87
2020-03-29 15:00:00 12.4 6 Nordeste 19 Noroeste 0 -- -- 58
2020-03-29 14:00:00 14.4 5 Norte 15 Este 0 -- -- 53
2020-03-29 13:00:00 13.2 5 Nordeste 15 Nordeste 0 -- -- 50
2020-03-29 12:00:00 12.3 4 Nordeste 8 Nordeste 0 -- -- 62
2020-03-29 11:00:00 8.1 3 Nordeste 7 Este 0 -- -- 81
2020-03-29 10:00:00 4.3 3 Este 5 Este 0 -- -- 93
2020-03-29 09:00:00 3 0 Calma 4 Sudoeste 0 -- -- 93
2020-03-29 08:00:00 3 2 Sudeste 5 Este 0 -- -- 93
2020-03-29 07:00:00 2.9 0 Calma 4 Sudoeste 0 -- -- 92
2020-03-29 06:00:00 3.1 0 Calma 3 Sur 0 -- -- 91
2020-03-29 05:00:00 3.7 0 Calma 4 Sudeste 0 -- -- 90
2020-03-29 03:00:00 4.2 0 Calma 4 Sudoeste 0 -- -- 86
2020-03-29 01:00:00 4.8 3 Oeste 4 Oeste 0 -- -- 83
2020-03-29 00:00:00 5.6 0 Calma 2 Oeste 0 -- -- 79
2020-03-28 23:00:00 6.7 0 Calma 5 Oeste 0 -- -- 72
2020-03-28 22:00:00 7.9 3 Oeste 6 Sudoeste 0 -- -- 69
2020-03-28 21:00:00 9.9 3 Este 11 Este 0 -- -- 63
2020-03-28 20:00:00 10.8 4 Nordeste 17 Norte 0 -- -- 61
2020-03-28 19:00:00 12.3 5 Nordeste 15 Nordeste 0 -- -- 51
2020-03-28 18:00:00 14.3 5 Nordeste 17 Noroeste 0 -- -- 44
2020-03-28 17:00:00 15.7 5 Nordeste 17 Nordeste 0 -- -- 39
2020-03-28 16:00:00 15.6 5 Nordeste 20 Nordeste 0 -- -- 39
2020-03-28 15:00:00 16 6 Nordeste 20 Nordeste 0 -- -- 40
2020-03-28 14:00:00 16.2 7 Nordeste 18 Nordeste 0 -- -- 38
2020-03-28 13:00:00 16.7 5 Nordeste 14 Nordeste 0 -- -- 41
2020-03-28 12:00:00 15.5 5 Nordeste 14 Norte 0 -- -- 46
2020-03-28 11:00:00 12.1 3 Noroeste 8 Noroeste 0 -- -- 59
2020-03-28 10:00:00 8 3 Norte 5 Nordeste 0 -- -- 77
2020-03-28 09:00:00 4.1 0 Calma 4 Este 0 -- -- 96
2020-03-28 08:00:00 2.4 0 Calma 4 Sudeste 0 -- -- 95
2020-03-28 07:00:00 2.2 0 Calma 6 Oeste 0 -- -- 95
2020-03-28 06:00:00 2.3 2 Noroeste 4 Este 0 -- -- 94
2020-03-28 05:00:00 2.7 0 Calma 4 Sudoeste 0 -- -- 94
2020-03-28 04:00:00 2.9 0 Calma 3 Sudeste 0 -- -- 93
2020-03-28 03:00:00 3.3 0 Calma 4 Sudeste 0 -- -- 91
2020-03-28 02:00:00 3.6 0 Calma 3 Sudoeste 0 -- -- 90
2020-03-28 01:00:00 4.4 0 Calma 3 Sudeste 0 -- -- 88
2020-03-28 00:00:00 4.9 0 Calma 3 Sudeste 0 -- -- 86
2020-03-27 23:00:00 5.6 0 Calma 4 Sudoeste 0 -- -- 81
2020-03-27 22:00:00 6.6 0 Calma 6 Oeste 0 -- -- 77
2020-03-27 21:00:00 8.3 3 Oeste 8 Norte 0 -- -- 69
2020-03-27 20:00:00 9.2 3 Nordeste 10 Nordeste 0 -- -- 66
2020-03-27 19:00:00 10.1 4 Nordeste 15 Norte 0 -- -- 60
2020-03-27 18:00:00 12 7 Nordeste 23 Norte 0 -- -- 52
2020-03-27 17:00:00 13.4 6 Nordeste 22 Norte 0 -- -- 47
2020-03-27 16:00:00 13.3 6 Nordeste 22 Nordeste 0 -- -- 46
2020-03-27 15:00:00 14.6 6 Nordeste 17 Noroeste 0 -- -- 41
2020-03-27 14:00:00 14.6 5 Nordeste 18 Este 0 -- -- 41
2020-03-27 13:00:00 14.6 6 Nordeste 18 Norte 0 -- -- 44
2020-03-27 12:00:00 13 4 Nordeste 12 Nordeste 0 -- -- 45
2020-03-27 11:00:00 10.2 3 Noroeste 8 Noroeste 0 -- -- 50
2020-03-27 10:00:00 6.2 0 Calma 5 Nordeste 0 -- -- 75
2020-03-27 09:00:00 2.3 2 Noroeste 5 Este 0 -- -- 91
2020-03-27 08:00:00 0.7 0 Calma 4 Sudeste 0 -- -- 92
2020-03-27 07:00:00 0.5 0 Calma 5 Oeste 0 -- -- 91
2020-03-27 06:00:00 0.7 0 Calma 6 Oeste 0 -- -- 89
2020-03-27 05:00:00 1 0 Calma 4 Este 0 -- -- 87
2020-03-27 04:00:00 1.4 0 Calma 4 Sudeste 0 -- -- 86
2020-03-27 03:00:00 1.9 2 Este 5 Sudoeste 0 -- -- 83
2020-03-27 02:00:00 2.4 2 Sudoeste 4 Sur 0 -- -- 80
2020-03-27 01:00:00 3.1 3 Sudeste 6 Sudoeste 0 -- -- 77
2020-03-27 00:00:00 3.7 0 Calma 6 Este 0 -- -- 73
2020-03-26 23:00:00 4.3 2 Oeste 5 Sudeste 0 -- -- 73
2020-03-26 22:00:00 5.3 3 Oeste 4 Sudeste 0 -- -- 63
2020-03-26 21:00:00 7 4 Sudoeste 15 Oeste 0 -- -- 54
2020-03-26 20:00:00 7.7 5 Oeste 13 Norte 0 -- -- 52
2020-03-26 19:00:00 9 4 Nordeste 16 Norte 0 -- -- 49
2020-03-26 18:00:00 10.5 5 Nordeste 27 Nordeste 0 -- -- 46
2020-03-26 17:00:00 10.9 7 Nordeste 24 Nordeste 0 -- -- 45
2020-03-26 16:00:00 12.3 7 Nordeste 33 Norte 0 -- -- 39
2020-03-26 15:00:00 12.1 6 Nordeste 24 Norte 0 -- -- 38
2020-03-26 14:00:00 11.2 8 Norte 34 Norte 0 -- -- 43
2020-03-26 13:00:00 10.8 7 Norte 30 Norte 0 -- -- 43
2020-03-26 12:00:00 10.3 10 Norte 33 Norte 0 -- -- 49
2020-03-26 11:00:00 10.5 9 Nordeste 34 Nordeste 0 -- -- 45
2020-03-26 10:00:00 10.2 8 Nordeste 30 Norte 0 -- -- 50
2020-03-26 09:00:00 10 10 Norte 26 Noroeste 0 -- -- 58
2020-03-26 08:00:00 9.8 9 Noroeste 26 Oeste 0 -- -- 59
2020-03-26 07:00:00 8.9 12 Oeste 30 Oeste 0 -- -- 70
2020-03-26 06:00:00 8.9 16 Oeste 33 Oeste 0 -- -- 73
2020-03-26 05:00:00 8.8 18 Oeste 37 Sudoeste 0 -- -- 74
2020-03-26 04:00:00 8.7 24 Oeste 36 Oeste 0 -- -- 74
2020-03-26 03:00:00 9 16 Oeste 35 Oeste 0 -- -- 69
2020-03-26 02:00:00 9 12 Oeste 26 Sudoeste 0 -- -- 69
2020-03-26 01:00:00 8.9 3 Oeste 11 Oeste 0 -- -- 69
2020-03-26 00:00:00 8.8 7 Sudoeste 13 Sudoeste 0 -- -- 65
2020-03-25 23:00:00 8.5 5 Sudoeste 12 Oeste 0 -- -- 65
2020-03-25 22:00:00 8.3 6 Oeste 14 Sudoeste 0 -- -- 65
2020-03-25 21:00:00 8.5 7 Oeste 23 Noroeste 0 -- -- 63
2020-03-25 20:00:00 8.8 6 Norte 17 Noroeste 0 -- -- 71
2020-03-25 19:00:00 10 3 Sudoeste 20 Nordeste 0 -- -- 67
2020-03-25 18:00:00 12.1 6 Nordeste 30 Nordeste 0 -- -- 57
2020-03-25 17:00:00 14.2 7 Nordeste 23 Norte 0 -- -- 51
2020-03-25 16:00:00 14.6 8 Norte 25 Nordeste 0 -- -- 56
2020-03-25 15:00:00 14.5 5 Nordeste 22 Nordeste 0 -- -- 61
2020-03-25 14:00:00 14.4 6 Nordeste 32 Nordeste 0 -- -- 65
2020-03-25 13:00:00 14.8 7 Nordeste 23 Nordeste 0 -- -- 69
2020-03-25 12:00:00 16.1 6 Nordeste 19 Norte 0 -- -- 63
2020-03-25 11:00:00 15 5 Nordeste 10 Nordeste 0 -- -- 65
2020-03-25 10:00:00 10.8 2 Oeste 5 Oeste 0 -- -- 85
2020-03-25 09:00:00 6.9 0 Calma 3 Nordeste 0 -- -- 97
2020-03-25 08:00:00 5.6 0 Calma 3 Sudeste 0 -- -- 97
2020-03-25 07:00:00 5.3 0 Calma 4 Este 0 -- -- 96
2020-03-25 06:00:00 5.6 0 Calma 4 Sudeste 0 -- -- 95
2020-03-25 05:00:00 6 2 Oeste 3 Sudeste 0 -- -- 95
2020-03-25 04:00:00 6.4 0 Calma 4 Este 0 -- -- 94
2020-03-25 03:00:00 6.8 0 Calma 6 Oeste 0 -- -- 93
2020-03-25 02:00:00 7.3 0 Calma 4 Sudoeste 0 -- -- 92
2020-03-25 01:00:00 7.8 3 Oeste 5 Sudoeste 0 -- -- 90
2020-03-25 00:00:00 8.5 0 Calma 5 Oeste 0 -- -- 88
2020-03-24 23:00:00 9.3 2 Sur 4 Este 0 -- -- 85
2020-03-24 22:00:00 10.2 0 Calma 3 Sur 0 -- -- 82
2020-03-24 21:00:00 11.7 2 Noroeste 5 Nordeste 0 -- -- 77
2020-03-24 20:00:00 12.7 3 Norte 15 Nordeste 0 -- -- 71
2020-03-24 19:00:00 14.6 7 Este 19 Nordeste 0 -- -- 59
2020-03-24 18:00:00 17.1 5 Nordeste 16 Norte 0 -- -- 46
2020-03-24 17:00:00 17.7 5 Norte 19 Nordeste 0 -- -- 51
2020-03-24 16:00:00 18.8 7 Nordeste 18 Nordeste 0 -- -- 48
2020-03-24 15:00:00 19.1 6 Nordeste 18 Nordeste 0 -- -- 47
2020-03-24 14:00:00 19.1 6 Nordeste 17 Norte 0 -- -- 50
2020-03-24 13:00:00 18.4 3 Norte 10 Norte 0 -- -- 46
2020-03-24 12:00:00 17.5 5 Norte 10 Noroeste 0 -- -- 52
2020-03-24 11:00:00 15.5 3 Nordeste 6 Nordeste 0 -- -- 63
2020-03-24 10:00:00 12 2 Nordeste 4 Sudeste 0 -- -- 92
2020-03-24 09:00:00 9.1 3 Este 5 Este 0 -- -- 99
2020-03-24 08:00:00 8 0 Calma 6 Oeste 0 -- -- 98
2020-03-24 07:00:00 7.9 2 Oeste 4 Este 0 -- -- 98
2020-03-24 06:00:00 7.8 3 Sudoeste 7 Oeste 0 -- -- 98
2020-03-24 05:00:00 8 4 Sudoeste 7 Sudoeste 0 -- -- 98
2020-03-24 04:00:00 8.1 0 Calma 6 Oeste 0 -- -- 97
2020-03-24 03:00:00 8.3 0 Calma 5 Noroeste 0 -- -- 96
2020-03-24 02:00:00 8.8 0 Calma 5 Sudoeste 0 -- -- 96
2020-03-24 01:00:00 9.4 0 Calma 4 Sudeste 0 -- -- 95
2020-03-24 00:00:00 9.8 3 Sudoeste 6 Sudoeste 0 -- -- 94
2020-03-23 23:00:00 10.5 0 Calma 4 Sur 0 -- -- 92
2020-03-23 22:00:00 11.5 3 Sur 7 Norte 0.2 -- -- 89
2020-03-23 21:00:00 12.1 2 Norte 9 Nordeste 0 -- -- 83
2020-03-23 20:00:00 12 4 Nordeste 15 Norte 0 -- -- 81
2020-03-23 19:00:00 12.5 5 Norte 18 Norte 0 -- -- 77
2020-03-23 18:00:00 13.2 6 Nordeste 18 Norte 0 -- -- 74
2020-03-23 17:00:00 13.9 5 Nordeste 18 Nordeste 0 -- -- 70
2020-03-23 16:00:00 15.1 6 Nordeste 17 Norte 0 -- -- 65
2020-03-23 15:00:00 17.1 6 Nordeste 20 Norte 0 -- -- 58
2020-03-23 14:00:00 16.8 5 Nordeste 14 Norte 0 -- -- 61
2020-03-23 13:00:00 14.1 5 Norte 14 Norte 0 -- -- 72
2020-03-23 12:00:00 12.4 4 Norte 9 Norte 0 -- -- 81
2020-03-23 11:00:00 11.5 2 Sudoeste 6 Sudeste 0 -- -- 85
2020-03-23 10:00:00 10.8 0 Calma 6 Este 0 -- -- 91
2020-03-23 09:00:00 10 3 Este 5 Oeste 0.2 -- -- 93
2020-03-23 08:00:00 9.6 0 Calma 3 Sudeste 0 -- -- 91
2020-03-23 07:00:00 9.5 3 Sudeste 5 Sudeste 0 -- -- 91
2020-03-23 06:00:00 9.8 3 Sudoeste 6 Sudoeste 0 -- -- 90
2020-03-23 05:00:00 9.6 3 Sudoeste 5 Noroeste 0 -- -- 91
2020-03-23 04:00:00 9.6 0 Calma 5 Sudeste 0 -- -- 91
2020-03-23 03:00:00 9.8 3 Sudeste 7 Sudeste 0 -- -- 90
2020-03-23 02:00:00 9.9 4 Oeste 6 Sudoeste 0 -- -- 89
2020-03-23 01:00:00 10 3 Sur 5 Sudeste 0 -- -- 87
2020-03-23 00:00:00 10.4 2 Sudeste 4 Sudoeste 0 -- -- 86
2020-03-22 23:00:00 10.5 2 Sur 4 Sudeste 0 -- -- 86
2020-03-22 22:00:00 10.8 3 Este 5 Nordeste 0 -- -- 83
2020-03-22 21:00:00 12 0 Calma 11 Nordeste 0 -- -- 77
2020-03-22 20:00:00 12.6 5 Este 12 Nordeste 0 -- -- 77
2020-03-22 19:00:00 13.1 3 Nordeste 13 Este 0 -- -- 74
2020-03-22 18:00:00 13.5 5 Nordeste 15 Nordeste 0 -- -- 72
2020-03-22 17:00:00 14.1 6 Nordeste 19 Nordeste 0 -- -- 70
2020-03-22 16:00:00 15.8 7 Nordeste 24 Nordeste 0 -- -- 62
2020-03-22 15:00:00 16.3 8 Nordeste 21 Norte 0 -- -- 61
2020-03-22 14:00:00 17.3 6 Norte 20 Norte 0 -- -- 58
2020-03-22 13:00:00 17.7 6 Norte 19 Norte 0 -- -- 58
2020-03-22 12:00:00 16.1 4 Nordeste 11 Norte 0 -- -- 62
2020-03-22 11:00:00 13.8 4 Noroeste 7 Norte 0 -- -- 66
2020-03-22 10:00:00 10.4 2 Norte 6 Este 0 -- -- 78
2020-03-22 09:00:00 7.3 2 Norte 5 Oeste 0 -- -- 90
2020-03-22 08:00:00 6.2 0 Calma 4 Norte 0 -- -- 88
2020-03-22 07:00:00 6.4 3 Oeste 6 Sudeste 0 -- -- 85
2020-03-22 06:00:00 6.9 0 Calma 5 Oeste 0 -- -- 82
2020-03-22 05:00:00 7.5 0 Calma 7 Sudoeste 0 -- -- 77
2020-03-22 04:00:00 8.1 3 Oeste 6 Oeste 0 -- -- 73
2020-03-22 03:00:00 8.4 2 Oeste 5 Sudeste 0 -- -- 71
2020-03-22 02:00:00 8.7 0 Calma 3 Noroeste 0 -- -- 68
2020-03-22 01:00:00 9.1 0 Calma 7 Oeste 0 -- -- 65
2020-03-22 00:00:00 9.7 3 Sudeste 6 Este 0 -- -- 64
2020-03-21 23:00:00 10.6 0 Calma 4 Sudeste 0 -- -- 58
2020-03-21 22:00:00 11.7 0 Calma 9 Sudeste 0 -- -- 53
2020-03-21 21:00:00 12.6 0 Calma 5 Sur 0 -- -- 50
2020-03-21 20:00:00 14.2 2 Sudoeste 7 Sudoeste 0 -- -- 42
2020-03-21 19:00:00 16.5 4 Sur 11 Sudoeste 0 -- -- 35
2020-03-21 18:00:00 19.1 4 Sur 15 Sudoeste 0 -- -- 33
2020-03-21 17:00:00 20 5 Sudoeste 19 Sudoeste 0 -- -- 28
2020-03-21 16:00:00 20.1 5 Sur 18 Sudoeste 0 -- -- 29
2020-03-21 15:00:00 19.7 4 Sudeste 19 Sudeste 0 -- -- 28
2020-03-21 14:00:00 19.1 9 Sudeste 27 Sudoeste 0 -- -- 29
2020-03-21 13:00:00 18.4 9 Sur 21 Este 0 -- -- 33
2020-03-21 12:00:00 17.5 7 Sur 24 Sudeste 0 -- -- 32
2020-03-21 11:00:00 16.5 5 Este 23 Sudeste 0 -- -- 36
2020-03-21 10:00:00 14.6 5 Oeste 13 Sudoeste 0 -- -- 44
2020-03-21 09:00:00 12.9 6 Este 19 Sudeste 0 -- -- 48
2020-03-21 08:00:00 12.3 6 Sudeste 23 Este 0 -- -- 49
2020-03-21 07:00:00 12.6 10 Sudoeste 23 Sudoeste 0 -- -- 46
2020-03-21 06:00:00 12.8 9 Sudoeste 20 Sudoeste 0 -- -- 48
2020-03-21 05:00:00 12.7 5 Sudoeste 26 Sur 0 -- -- 54
2020-03-21 04:00:00 13.1 5 Norte 27 Sudeste 0 -- -- 54
2020-03-21 03:00:00 13.5 3 Norte 18 Este 0 -- -- 53
2020-03-21 02:00:00 14 4 Sudoeste 24 Sudeste 0 -- -- 51
2020-03-21 01:00:00 14.1 6 Sudoeste 28 Sudoeste 0 -- -- 52
2020-03-21 00:00:00 14.6 5 Sur 27 Sudeste 0 -- -- 50
2020-03-20 23:00:00 14.6 4 Sudoeste 18 Oeste 0 -- -- 52
2020-03-20 22:00:00 14.9 6 Sudoeste 17 Sudoeste 0 -- -- 51
2020-03-20 21:00:00 14.9 6 Sudoeste 21 Sur 0 -- -- 49
2020-03-20 20:00:00 15.2 6 Sudoeste 14 Sudoeste 0 -- -- 48
2020-03-20 19:00:00 15.8 6 Sudoeste 18 Sudeste 0 -- -- 46
2020-03-20 18:00:00 17.6 4 Sur 21 Este 0 -- -- 39
2020-03-20 17:00:00 18.7 5 Sur 19 Sudoeste 0 -- -- 34
2020-03-20 16:00:00 18.6 5 Sudeste 30 Sudoeste 0 -- -- 34
2020-03-20 15:00:00 18.1 15 Sudoeste 31 Sudoeste 0 -- -- 36
2020-03-20 14:00:00 17.8 12 Sudoeste 36 Sudoeste 0 -- -- 35
2020-03-20 13:00:00 17.2 13 Sudoeste 40 Sudoeste 0 -- -- 38
2020-03-20 12:00:00 17.1 15 Sudoeste 35 Sudoeste 0 -- -- 31
2020-03-20 11:00:00 15.9 12 Sudoeste 34 Sudoeste 0 -- -- 36
2020-03-20 10:00:00 15.2 10 Sur 28 Sudeste 0 -- -- 34
2020-03-20 09:00:00 14.4 6 Sudoeste 28 Sudeste 0 -- -- 35
2020-03-20 08:00:00 13.6 9 Sudoeste 30 Oeste 0 -- -- 38
2020-03-20 07:00:00 13.5 9 Sudoeste 23 Sudoeste 0 -- -- 39
2020-03-20 06:00:00 13.7 6 Sudoeste 24 Sudoeste 0 -- -- 39
2020-03-20 05:00:00 14.2 10 Sudoeste 26 Sudoeste 0 -- -- 37
2020-03-20 04:00:00 14.4 6 Sudoeste 19 Sudoeste 0 -- -- 39
2020-03-20 03:00:00 14.4 4 Sur 25 Sudoeste 0 -- -- 44
2020-03-20 02:00:00 15 7 Sur 27 Sudoeste 0 -- -- 44
2020-03-20 01:00:00 15.4 8 Sur 27 Este 0 -- -- 46
2020-03-20 00:00:00 15.6 7 Oeste 26 Este 0 -- -- 49
2020-03-19 23:00:00 15.7 5 Este 25 Sudeste 0 -- -- 50
2020-03-19 22:00:00 15.8 5 Sudoeste 19 Sudoeste 0 -- -- 49
2020-03-19 21:00:00 16.3 5 Sudoeste 14 Sudeste 0 -- -- 37
2020-03-19 20:00:00 17.2 4 Sur 22 Este 0 -- -- 32
2020-03-19 19:00:00 18.2 4 Sudoeste 21 Este 0 -- -- 34
2020-03-19 18:00:00 19.4 4 Sudeste 16 Sudoeste 0 -- -- 32
2020-03-19 17:00:00 20.6 4 Sudeste 16 Sudeste 0 -- -- 33
2020-03-19 16:00:00 21.3 5 Este 22 Sudoeste 0 -- -- 32
2020-03-19 15:00:00 21.8 6 Sudeste 23 Sudoeste 0 -- -- 35
2020-03-19 14:00:00 21.2 8 Sur 26 Sudeste 0 -- -- 38
2020-03-19 13:00:00 20.7 8 Sur 24 Sudeste 0 -- -- 39
2020-03-19 12:00:00 19.9 10 Sudeste 24 Sudeste 0 -- -- 38
2020-03-19 11:00:00 18.3 7 Sudeste 24 Sudeste 0 -- -- 40
2020-03-19 10:00:00 16.6 5 Sudoeste 16 Sudeste 0 -- -- 48
2020-03-19 09:00:00 13.2 4 Sudeste 14 Noroeste 0 -- -- 69
2020-03-19 08:00:00 11.6 2 Norte 6 Este 0 -- -- 78
2020-03-19 07:00:00 11.2 2 Este 5 Sudeste 0 -- -- 85
2020-03-19 06:00:00 11.3 0 Calma 5 Este 0 -- -- 85
2020-03-19 05:00:00 11.8 0 Calma 12 Oeste 0 -- -- 83
2020-03-19 04:00:00 11.3 0 Calma 7 Sudeste 0 -- -- 87
2020-03-19 03:00:00 11.1 0 Calma 6 Noroeste 0 -- -- 90
2020-03-19 02:00:00 11.1 2 Sudeste 4 Sudoeste 0 -- -- 92
2020-03-19 01:00:00 11.3 0 Calma 5 Oeste 0 -- -- 91
2020-03-19 00:00:00 11.8 2 Oeste 4 Sudoeste 0 -- -- 90
2020-03-18 23:00:00 12.2 0 Calma 3 Sudoeste 0 -- -- 88
2020-03-18 22:00:00 12.8 0 Calma 5 Sudoeste 0 -- -- 85
2020-03-18 21:00:00 13.6 0 Calma 6 Sudoeste 0 -- -- 79
2020-03-18 20:00:00 14.4 4 Sudoeste 13 Noroeste 0 -- -- 74
2020-03-18 19:00:00 15.4 6 Noroeste 16 Norte 0 -- -- 68
2020-03-18 18:00:00 17 4 Sur 11 Nordeste 0 -- -- 64
2020-03-18 17:00:00 18.5 5 Nordeste 15 Norte 0 -- -- 60
2020-03-18 16:00:00 20.3 4 Norte 12 Norte 0 -- -- 57
2020-03-18 15:00:00 21.5 4 Nordeste 10 Este 0 -- -- 55
2020-03-18 14:00:00 20.1 3 Oeste 9 Noroeste 0 -- -- 52
2020-03-18 13:00:00 18.5 4 Noroeste 8 Noroeste 0 -- -- 56
2020-03-18 12:00:00 16.6 3 Oeste 7 Oeste 0 -- -- 66
2020-03-18 11:00:00 12.9 2 Noroeste 4 Oeste 0 -- -- 98
2020-03-18 10:00:00 10.5 2 Nordeste 3 Nordeste 0 -- -- 100
2020-03-18 09:00:00 8.8 0 Calma 4 Este 0 -- -- 99
2020-03-18 08:00:00 8.2 0 Calma 6 Sudeste 0 -- -- 99
2020-03-18 07:00:00 7.9 3 Sudeste 4 Sudeste 0 -- -- 99
2020-03-18 06:00:00 7.9 0 Calma 5 Sudoeste 0 -- -- 99
2020-03-18 05:00:00 8.1 5 Sudeste 6 Sudeste 0 -- -- 98
2020-03-18 04:00:00 8.6 0 Calma 6 Sudoeste 0 -- -- 98
2020-03-18 03:00:00 9.1 2 Oeste 6 Este 0 -- -- 98
2020-03-18 02:00:00 9.6 0 Calma 5 Sudoeste 0 -- -- 98
2020-03-18 01:00:00 9.6 5 Sudoeste 5 Sudoeste 0 -- -- 97
2020-03-18 00:00:00 10.4 0 Calma 4 Sur 0 -- -- 96
2020-03-17 23:00:00 10.7 4 Oeste 5 Oeste 0 -- -- 95
2020-03-17 22:00:00 11 0 Calma 8 Norte 0 -- -- 95
2020-03-17 21:00:00 11.2 3 Este 9 Norte 0 -- -- 94
2020-03-17 20:00:00 11.5 3 Norte 8 Norte 0 -- -- 92
2020-03-17 19:00:00 12.2 3 Nordeste 9 Norte 0 -- -- 88
2020-03-17 18:00:00 12.7 3 Nordeste 10 Norte 0 -- -- 86
2020-03-17 17:00:00 12.4 2 Nordeste 8 Norte 0 -- -- 87
2020-03-17 16:00:00 12.3 2 Norte 8 Nordeste 0 -- -- 87
2020-03-17 15:00:00 11.9 3 Norte 6 Noroeste 0 -- -- 90
2020-03-17 14:00:00 10.9 3 Norte 8 Norte 0 -- -- 93
2020-03-17 13:00:00 10.7 3 Nordeste 8 Este 0 -- -- 94
2020-03-17 12:00:00 10.8 3 Nordeste 9 Nordeste 0 -- -- 96
2020-03-17 11:00:00 10.7 0 Calma 6 Sudeste 0 -- -- 97
2020-03-17 10:00:00 10.4 0 Calma 5 Sudeste 0.2 -- -- 98
2020-03-17 09:00:00 10 2 Sur 10 Sudoeste 0 -- -- 98
2020-03-17 08:00:00 9.7 2 Oeste 5 Sudeste 0 -- -- 98
2020-03-17 07:00:00 9.7 2 Oeste 10 Nordeste 0 -- -- 98
2020-03-17 06:00:00 9.7 3 Este 14 Norte 0.8 -- -- 98
2020-03-17 05:00:00 9.8 3 Este 11 Nordeste 0.4 -- -- 98
2020-03-17 04:00:00 9.7 2 Norte 9 Sur 0.4 -- -- 98
2020-03-17 03:00:00 9.7 4 Norte 10 Norte 0.2 -- -- 97
2020-03-17 02:00:00 9.8 3 Este 14 Sudoeste 0.6 -- -- 97
2020-03-17 01:00:00 9.6 3 Noroeste 6 Sudoeste 1.6 -- -- 97
2020-03-17 00:00:00 9.7 4 Sudeste 10 Nordeste 1.2 -- -- 96
2020-03-16 23:00:00 9.6 5 Este 11 Sudeste 2.4 -- -- 97
2020-03-16 22:00:00 9.4 3 Sudoeste 14 Norte 1.2 -- -- 97
2020-03-16 21:00:00 9.3 5 Norte 15 Norte 0.6 -- -- 97
2020-03-16 20:00:00 9.2 5 Nordeste 17 Nordeste 0.6 -- -- 97
2020-03-16 19:00:00 9.1 4 Nordeste 16 Nordeste 0.6 -- -- 96
2020-03-16 18:00:00 9.3 4 Este 12 Nordeste 0.2 -- -- 94
2020-03-16 17:00:00 9.7 6 Norte 17 Nordeste 0.4 -- -- 90
2020-03-16 16:00:00 9.6 6 Norte 17 Norte 1 -- -- 94
2020-03-16 15:00:00 10.1 5 Nordeste 12 Nordeste 1.6 -- -- 94
2020-03-16 14:00:00 9.8 4 Nordeste 15 Nordeste 2.8 -- -- 94
2020-03-16 13:00:00 9.7 4 Nordeste 13 Nordeste 2.2 -- -- 94
2020-03-16 12:00:00 9.7 5 Nordeste 17 Oeste 2.8 -- -- 94
2020-03-16 11:00:00 9.2 5 Norte 28 Noroeste 5 -- -- 92
2020-03-16 10:00:00 8.6 10 Norte 28 Oeste 7.4 -- -- 94
2020-03-16 09:00:00 7.6 10 Sudoeste 30 Oeste 6.4 -- -- 95
2020-03-16 08:00:00 7.1 13 Oeste 27 Oeste 5.4 -- -- 93
2020-03-16 07:00:00 7 13 Oeste 29 Oeste 5 -- -- 92
2020-03-16 06:00:00 7.1 13 Sudoeste 32 Oeste 3 -- -- 91
2020-03-16 05:00:00 7.4 15 Oeste 24 Sudoeste 3.4 -- -- 92
2020-03-16 04:00:00 7.4 4 Oeste 21 Oeste 4.2 -- -- 93
2020-03-16 03:00:00 7.6 12 Oeste 20 Sudoeste 3.8 -- -- 92
2020-03-16 02:00:00 8 5 Oeste 17 Oeste 2.2 -- -- 94
2020-03-16 01:00:00 8.1 2 Nordeste 14 Sudoeste 2.4 -- -- 92
2020-03-16 00:00:00 8.2 3 Sur 19 Oeste 2.4 -- -- 93
2020-03-15 23:00:00 8.6 8 Oeste 31 Oeste 0.6 -- -- 92
2020-03-15 22:00:00 9.6 3 Sudoeste 8 Sudeste 1 -- -- 94
2020-03-15 21:00:00 9.8 3 Sudeste 21 Oeste 3 -- -- 91
2020-03-15 20:00:00 10.6 3 Sudoeste 7 Este 4.4 -- -- 88
2020-03-15 19:00:00 11.6 3 Este 10 Nordeste 0 -- -- 76
2020-03-15 18:00:00 11.9 5 Nordeste 19 Nordeste 0 -- -- 74
2020-03-15 17:00:00 12.1 5 Nordeste 22 Nordeste 0 -- -- 78
2020-03-15 16:00:00 14 9 Nordeste 26 Nordeste 0 -- -- 71
2020-03-15 15:00:00 14.7 11 Nordeste 33 Nordeste 0 -- -- 69
2020-03-15 14:00:00 17.2 9 Norte 32 Norte 0 -- -- 58
2020-03-15 13:00:00 20.9 10 Sudeste 26 Sudeste 0 -- -- 32
2020-03-15 12:00:00 19.4 11 Sudeste 32 Sudeste 0 -- -- 33
2020-03-15 11:00:00 18.2 12 Sudeste 31 Sudeste 0 -- -- 36
2020-03-15 10:00:00 16.3 11 Este 28 Este 0 -- -- 44
2020-03-15 09:00:00 13.4 6 Sudeste 18 Este 0 -- -- 50
2020-03-15 08:00:00 11 7 Sudeste 17 Sudeste 0 -- -- 54
2020-03-15 07:00:00 5.5 5 Sudoeste 14 Sudoeste 0 -- -- 83
2020-03-15 06:00:00 3.4 0 Calma 5 Sudeste 0 -- -- 96
2020-03-15 05:00:00 3.2 0 Calma 4 Oeste 0 -- -- 96
2020-03-15 04:00:00 3.5 0 Calma 4 Sudoeste 0 -- -- 95
2020-03-15 03:00:00 3.9 0 Calma 4 Sudeste 0 -- -- 94
2020-03-15 02:00:00 4.2 2 Sudoeste 4 Sudoeste 0 -- -- 93
2020-03-15 01:00:00 4.6 0 Calma 4 Sudeste 0 -- -- 92
2020-03-15 00:00:00 5.3 0 Calma 2 Sudoeste 0 -- -- 90
2020-03-14 23:00:00 6 0 Calma 3 Sudeste 0 -- -- 87
2020-03-14 22:00:00 6.8 2 Oeste 5 Oeste 0 -- -- 82
2020-03-14 21:00:00 7.9 3 Sudeste 6 Sudoeste 0 -- -- 77
2020-03-14 20:00:00 10 3 Noroeste 11 Nordeste 0 -- -- 66
2020-03-14 19:00:00 11.1 4 Nordeste 15 Nordeste 0 -- -- 60
2020-03-14 18:00:00 13.2 5 Nordeste 16 Norte 0 -- -- 53
2020-03-14 17:00:00 14.6 5 Nordeste 16 Nordeste 0 -- -- 51
2020-03-14 16:00:00 14.9 5 Norte 15 Norte 0 -- -- 49
2020-03-14 15:00:00 15 6 Norte 16 Nordeste 0 -- -- 48
2020-03-14 14:00:00 14.7 5 Nordeste 17 Norte 0 -- -- 49
2020-03-14 13:00:00 14.6 5 Norte 13 Nordeste 0 -- -- 51
2020-03-14 12:00:00 12.6 3 Norte 9 Nordeste 0 -- -- 51
2020-03-14 11:00:00 9.8 3 Norte 6 Norte 0 -- -- 75
2020-03-14 10:00:00 6.4 2 Nordeste 5 Norte 0 -- -- 98
2020-03-14 09:00:00 3.3 2 Oeste 4 Este 0 -- -- 99
2020-03-14 08:00:00 2.5 2 Sudeste 5 Sudoeste 0 -- -- 97
2020-03-14 07:00:00 2.4 0 Calma 3 Oeste 0 -- -- 97
2020-03-14 06:00:00 2.9 0 Calma 2 Norte 0 -- -- 96
2020-03-14 05:00:00 3.2 2 Este 5 Sudoeste 0 -- -- 96
2020-03-14 04:00:00 3.8 2 Sudeste 4 Sudeste 0 -- -- 96
2020-03-14 03:00:00 4.3 0 Calma 4 Sudeste 0 -- -- 95
2020-03-14 02:00:00 4.8 3 Sudeste 6 Sudoeste 0 -- -- 93
2020-03-14 01:00:00 5.3 4 Sudoeste 6 Sudoeste 0 -- -- 93
2020-03-14 00:00:00 5.7 0 Calma 10 Sudoeste 0 -- -- 91
2020-03-13 23:00:00 6.2 3 Sudoeste 6 Sudoeste 0 -- -- 88
2020-03-13 22:00:00 7.3 0 Calma 10 Oeste 0 -- -- 83
2020-03-13 21:00:00 8.4 4 Oeste 9 Oeste 0 -- -- 76
2020-03-13 20:00:00 9.2 3 Este 14 Norte 0 -- -- 72
2020-03-13 19:00:00 10.1 5 Nordeste 13 Nordeste 0 -- -- 67
2020-03-13 18:00:00 11.7 4 Nordeste 14 Norte 0 -- -- 62
2020-03-13 17:00:00 13.3 4 Nordeste 13 Norte 0 -- -- 59
2020-03-13 16:00:00 12.6 5 Nordeste 14 Nordeste 0 -- -- 63
2020-03-13 15:00:00 12.8 5 Nordeste 16 Nordeste 0 -- -- 64
2020-03-13 14:00:00 13.2 6 Norte 20 Noroeste 0 -- -- 64
2020-03-13 13:00:00 12.7 6 Norte 16 Norte 0 -- -- 70
2020-03-13 12:00:00 11 7 Norte 17 Norte 0 -- -- 78
2020-03-13 11:00:00 10.1 6 Norte 13 Noroeste 0 -- -- 84
2020-03-13 10:00:00 9.4 4 Nordeste 12 Nordeste 0 -- -- 91
2020-03-13 09:00:00 8.7 3 Nordeste 6 Nordeste 0 -- -- 94
2020-03-13 08:00:00 8.5 3 Norte 7 Norte 0.4 -- -- 96
2020-03-13 07:00:00 8.6 0 Calma 6 Nordeste 0.4 -- -- 97
2020-03-13 06:00:00 8.7 3 Este 5 Nordeste 0.4 -- -- 96
2020-03-13 05:00:00 8.8 2 Nordeste 14 Norte 0.2 -- -- 96
2020-03-13 04:00:00 9 6 Norte 13 Norte 0.4 -- -- 97
2020-03-13 03:00:00 9.1 3 Nordeste 8 Nordeste 0.4 -- -- 96
2020-03-13 02:00:00 9.4 3 Norte 12 Nordeste 0.2 -- -- 96
2020-03-13 01:00:00 9.6 4 Norte 12 Norte 0.2 -- -- 97
2020-03-13 00:00:00 9.6 4 Nordeste 10 Nordeste 0.2 -- -- 96
2020-03-12 23:00:00 9.9 3 Sudeste 10 Nordeste 0.4 -- -- 97
2020-03-12 22:00:00 10.1 5 Nordeste 14 Nordeste 1.6 -- -- 96
2020-03-12 21:00:00 10.7 4 Nordeste 10 Nordeste 0.8 -- -- 96
2020-03-12 20:00:00 11.2 5 Nordeste 12 Nordeste 0.2 -- -- 95
2020-03-12 19:00:00 11.9 4 Nordeste 12 Este 0 -- -- 91
2020-03-12 18:00:00 12.4 6 Este 13 Este 0 -- -- 85
2020-03-12 17:00:00 12.8 4 Nordeste 12 Nordeste 0 -- -- 83
2020-03-12 16:00:00 13 5 Norte 12 Norte 0 -- -- 83
2020-03-12 15:00:00 13.1 4 Norte 8 Norte 0 -- -- 84
2020-03-12 14:00:00 12.7 4 Nordeste 10 Nordeste 0 -- -- 89
2020-03-12 13:00:00 12.6 3 Nordeste 9 Nordeste 0.2 -- -- 94
2020-03-12 12:00:00 12 2 Noroeste 5 Oeste 0 -- -- 97
2020-03-12 11:00:00 11.2 2 Norte 4 Noroeste 0 -- -- 98
2020-03-12 10:00:00 10.8 0 Calma 3 Norte 0 -- -- 98
2020-03-12 09:00:00 10.6 0 Calma 2 Este 0.2 -- -- 98
2020-03-12 08:00:00 10.3 0 Calma 3 Noroeste 0 -- -- 98
2020-03-12 07:00:00 10.2 3 Sudeste 5 Sudeste 0 -- -- 98
2020-03-12 06:00:00 10 3 Sudeste 4 Sudeste 0 -- -- 98
2020-03-12 05:00:00 10.2 0 Calma 6 Norte 0 -- -- 98
2020-03-12 04:00:00 9.9 3 Norte 6 Norte 0 -- -- 97
2020-03-12 03:00:00 9.6 2 Norte 9 Norte 0 -- -- 97
2020-03-12 02:00:00 9.2 2 Nordeste 5 Sudoeste 0 -- -- 95
2020-03-12 01:00:00 9.8 2 Sudeste 5 Oeste 0 -- -- 94
2020-03-12 00:00:00 10.2 3 Sudeste 4 Sudeste 0 -- -- 93
2020-03-11 23:00:00 10.7 3 Sudoeste 8 Sudoeste 0 -- -- 91
2020-03-11 22:00:00 11.3 4 Sudoeste 13 Norte 0 -- -- 91
2020-03-11 21:00:00 11.9 4 Noroeste 13 Nordeste 0 -- -- 87
2020-03-11 20:00:00 12.8 5 Norte 20 Noroeste 0 -- -- 80
2020-03-11 19:00:00 14.2 8 Norte 21 Nordeste 0 -- -- 73
2020-03-11 18:00:00 16.7 5 Nordeste 21 Nordeste 0 -- -- 64
2020-03-11 17:00:00 18 5 Nordeste 22 Norte 0 -- -- 60
2020-03-11 16:00:00 18.4 7 Norte 22 Norte 0 -- -- 60
2020-03-11 15:00:00 18.9 6 Norte 27 Nordeste 0 -- -- 59
2020-03-11 14:00:00 18.3 7 Norte 22 Norte 0 -- -- 61
2020-03-11 13:00:00 17.8 6 Norte 19 Norte 0 -- -- 64
2020-03-11 12:00:00 15.3 8 Norte 14 Norte 0 -- -- 75
2020-03-11 11:00:00 11.4 2 Norte 5 Norte 0 -- -- 93
2020-03-11 10:00:00 7.8 0 Calma 3 Oeste 0 -- -- 100
2020-03-11 09:00:00 5.5 2 Noroeste 3 Noroeste 0 -- -- 99
2020-03-11 08:00:00 5 0 Calma 3 Oeste 0 -- -- 98
2020-03-11 07:00:00 5.3 0 Calma 4 Sudoeste 0 -- -- 98
2020-03-11 06:00:00 5.5 0 Calma 3 Sudeste 0 -- -- 98
2020-03-11 05:00:00 5.8 0 Calma 4 Sudoeste 0 -- -- 97
2020-03-11 04:00:00 6.1 0 Calma 5 Oeste 0 -- -- 97
2020-03-11 03:00:00 6.4 0 Calma 4 Este 0 -- -- 97
2020-03-11 02:00:00 6.7 4 Sudoeste 5 Sudoeste 0 -- -- 96
2020-03-11 01:00:00 7.1 2 Sudeste 4 Sudoeste 0 -- -- 95
2020-03-11 00:00:00 7.6 0 Calma 8 Sudeste 0 -- -- 95
2020-03-10 23:00:00 8 2 Sudeste 6 Sudoeste 0 -- -- 93
2020-03-10 22:00:00 8.7 0 Calma 5 Sudeste 0 -- -- 91
2020-03-10 21:00:00 9.5 2 Este 5 Sudoeste 0 -- -- 89
2020-03-10 20:00:00 10.4 0 Calma 6 Este 0 -- -- 84
2020-03-10 19:00:00 11.9 2 Sudeste 13 Norte 0 -- -- 75
2020-03-10 18:00:00 13.1 5 Nordeste 21 Nordeste 0 -- -- 70
2020-03-10 17:00:00 13.9 6 Nordeste 22 Nordeste 0 -- -- 68
2020-03-10 16:00:00 14.4 6 Nordeste 23 Nordeste 0 -- -- 65
2020-03-10 15:00:00 15.6 6 Nordeste 21 Nordeste 0 -- -- 62
2020-03-10 14:00:00 15.9 6 Nordeste 20 Nordeste 0 -- -- 63
2020-03-10 13:00:00 14.6 6 Nordeste 19 Norte 0 -- -- 68
2020-03-10 12:00:00 12.2 3 Noroeste 11 Norte 0 -- -- 77
2020-03-10 11:00:00 9.2 2 Noroeste 4 Noroeste 0 -- -- 97
2020-03-10 10:00:00 7.2 0 Calma 4 Este 0 -- -- 99
2020-03-10 09:00:00 5.6 0 Calma 2 Este 0 -- -- 99
2020-03-10 08:00:00 4.9 0 Calma 3 Sudoeste 0.2 -- -- 98
2020-03-10 07:00:00 5.1 0 Calma 4 Sudeste 0 -- -- 98
2020-03-10 06:00:00 5.3 0 Calma 4 Oeste 0 -- -- 98
2020-03-10 05:00:00 5.6 0 Calma 6 Sudeste 0 -- -- 97
2020-03-10 04:00:00 5.7 3 Este 5 Sudeste 0 -- -- 97
2020-03-10 03:00:00 5.9 0 Calma 3 Este 0 -- -- 97
2020-03-10 02:00:00 6.3 0 Calma 4 Sudeste 0 -- -- 96
2020-03-10 01:00:00 6.6 3 Sudoeste 4 Sudoeste 0 -- -- 95
2020-03-10 00:00:00 7.2 3 Sudoeste 5 Oeste 0 -- -- 95
2020-03-09 23:00:00 7.8 2 Sudeste 4 Sudeste 0 -- -- 94
2020-03-09 22:00:00 8.3 0 Calma 3 Noroeste 0 -- -- 92
2020-03-09 21:00:00 8.8 0 Calma 5 Sudoeste 0 -- -- 87
2020-03-09 20:00:00 9.7 2 Oeste 12 Noroeste 0 -- -- 83
2020-03-09 19:00:00 10.1 4 Oeste 21 Sudoeste 0 -- -- 81
2020-03-09 18:00:00 10.5 8 Oeste 16 Sudoeste 0 -- -- 85
2020-03-09 17:00:00 9.6 5 Oeste 34 Oeste 0.8 -- -- 89
2020-03-09 16:00:00 10.4 12 Oeste 36 Sudoeste 1.4 -- -- 79
2020-03-09 15:00:00 11.4 6 Noroeste 33 Oeste 0.8 -- -- 75
2020-03-09 14:00:00 11.2 12 Oeste 28 Oeste 0 -- -- 73
2020-03-09 13:00:00 10.7 10 Noroeste 23 Noroeste 1.2 -- -- 79
2020-03-09 12:00:00 11.2 9 Noroeste 22 Oeste 0 -- -- 72
2020-03-09 11:00:00 11.3 12 Oeste 27 Sudoeste 0 -- -- 67
2020-03-09 10:00:00 10.1 7 Oeste 19 Oeste 0.2 -- -- 77
2020-03-09 09:00:00 9 10 Oeste 30 Oeste 0.6 -- -- 82
2020-03-09 08:00:00 9.1 5 Oeste 14 Noroeste 0 -- -- 82
2020-03-09 07:00:00 9.1 8 Oeste 20 Oeste 0.6 -- -- 86
2020-03-09 06:00:00 8.8 3 Sudoeste 16 Noroeste 0 -- -- 85
2020-03-09 05:00:00 8.9 8 Oeste 22 Sudoeste 0.2 -- -- 85
2020-03-09 04:00:00 8.9 8 Sudoeste 18 Oeste 0.4 -- -- 87
2020-03-09 03:00:00 9.3 10 Oeste 24 Oeste 1 -- -- 83
2020-03-09 02:00:00 10 8 Noroeste 26 Sudoeste 0 -- -- 75
2020-03-09 01:00:00 10 6 Noroeste 27 Noroeste 0.4 -- -- 79
2020-03-09 00:00:00 10.5 10 Noroeste 31 Noroeste 0.2 -- -- 75
2020-03-08 23:00:00 11.2 8 Oeste 19 Noroeste 0 -- -- 70
2020-03-08 22:00:00 11.1 4 Noroeste 20 Norte 0 -- -- 74
2020-03-08 21:00:00 11.5 9 Noroeste 23 Oeste 0 -- -- 73
2020-03-08 20:00:00 12 9 Oeste 22 Sudoeste 0 -- -- 69
2020-03-08 19:00:00 12.7 6 Oeste 32 Noroeste 0 -- -- 67
2020-03-08 18:00:00 13.1 5 Noroeste 17 Norte 0 -- -- 76
2020-03-08 17:00:00 14.5 3 Este 13 Nordeste 0 -- -- 68
2020-03-08 16:00:00 14.9 5 Norte 14 Nordeste 0 -- -- 66
2020-03-08 15:00:00 15.7 3 Noroeste 7 Oeste 0 -- -- 53
2020-03-08 14:00:00 15.2 2 Noroeste 5 Noroeste 0 -- -- 57
2020-03-08 13:00:00 13.9 2 Oeste 6 Sudoeste 0 -- -- 66
2020-03-08 12:00:00 11 2 Norte 6 Este 0 -- -- 87
2020-03-08 11:00:00 8.6 4 Sudeste 14 Oeste 0 -- -- 98
2020-03-08 10:00:00 5.6 3 Este 9 Oeste 0 -- -- 99
2020-03-08 09:00:00 3.7 4 Este 9 Oeste 0 -- -- 99
2020-03-08 08:00:00 2.7 3 Sudoeste 7 Sudeste 0 -- -- 99
2020-03-08 07:00:00 2.7 2 Este 5 Sudoeste 0 -- -- 98
2020-03-08 06:00:00 3.1 5 Sudoeste 9 Sudeste 0 -- -- 98
2020-03-08 05:00:00 3.5 4 Noroeste 6 Sudoeste 0 -- -- 98
2020-03-08 04:00:00 3.7 3 Sudoeste 5 Sudeste 0 -- -- 98
2020-03-08 03:00:00 3.6 3 Oeste 6 Sudoeste 0 -- -- 97
2020-03-08 02:00:00 4.2 3 Sudeste 5 Sudoeste 0 -- -- 97
2020-03-08 01:00:00 4.6 0 Calma 4 Sudoeste 0 -- -- 96
2020-03-08 00:00:00 5.3 2 Noroeste 4 Noroeste 0 -- -- 95
2020-03-07 23:00:00 6 3 Sudeste 4 Este 0 -- -- 94
2020-03-07 22:00:00 6.8 0 Calma 5 Sudeste 0 -- -- 93
2020-03-07 21:00:00 7.8 0 Calma 10 Oeste 0 -- -- 90
2020-03-07 20:00:00 9.2 3 Sudoeste 6 Sudoeste 0 -- -- 83
2020-03-07 19:00:00 10.8 3 Sur 8 Sur 0 -- -- 78
2020-03-07 18:00:00 11.1 5 Oeste 21 Sudoeste 0 -- -- 77
2020-03-07 17:00:00 11.6 4 Noroeste 10 Oeste 0 -- -- 75
2020-03-07 16:00:00 11.1 4 Oeste 33 Oeste 0 -- -- 78
2020-03-07 15:00:00 10.6 14 Oeste 30 Oeste 0.4 -- -- 82
2020-03-07 14:00:00 10.9 9 Noroeste 27 Sudoeste 1 -- -- 87
2020-03-07 13:00:00 10.9 4 Norte 17 Noroeste 0.4 -- -- 90
2020-03-07 12:00:00 10.4 4 Noroeste 25 Norte 1.6 -- -- 91
2020-03-07 11:00:00 10.2 5 Nordeste 24 Norte 2 -- -- 90
2020-03-07 10:00:00 10.1 8 Noroeste 22 Oeste 0.6 -- -- 83
2020-03-07 09:00:00 9.7 6 Oeste 26 Sudoeste 0.2 -- -- 83
2020-03-07 08:00:00 9.6 13 Oeste 32 Oeste 0 -- -- 80
2020-03-07 07:00:00 9.3 11 Noroeste 27 Oeste 0 -- -- 83
2020-03-07 06:00:00 8.4 8 Oeste 23 Oeste 2 -- -- 88
2020-03-07 05:00:00 8.7 10 Noroeste 30 Oeste 0 -- -- 83
2020-03-07 04:00:00 7.9 7 Noroeste 35 Sudoeste 0 -- -- 82
2020-03-07 03:00:00 6.9 10 Sudoeste 35 Noroeste 2 -- -- 88
2020-03-07 02:00:00 7.4 14 Oeste 55 Oeste 0.6 -- -- 79
2020-03-07 01:00:00 6.9 7 Noroeste 22 Oeste 2.2 -- -- 85
2020-03-07 00:00:00 7.4 15 Oeste 36 Sudoeste 0 -- -- 80
2020-03-06 23:00:00 6.9 12 Oeste 49 Oeste 1.4 -- -- 81
2020-03-06 22:00:00 6.8 12 Oeste 50 Sudoeste 1.2 -- -- 80
2020-03-06 21:00:00 7.5 13 Oeste 43 Sudoeste 0.8 -- -- 78
2020-03-06 20:00:00 7.3 15 Oeste 51 Oeste 1.6 -- -- 78
2020-03-06 19:00:00 7.5 19 Oeste 44 Oeste 0.2 -- -- 75
2020-03-06 18:00:00 8.1 15 Oeste 43 Sudoeste 0.2 -- -- 74
2020-03-06 17:00:00 8.2 18 Oeste 39 Oeste 0.8 -- -- 75
2020-03-06 16:00:00 7.6 14 Oeste 37 Noroeste 0.8 -- -- 76
2020-03-06 15:00:00 6.6 14 Noroeste 65 Oeste 3.4 -- -- 81
2020-03-06 14:00:00 9.2 16 Oeste 46 Oeste 1.4 -- -- 66
2020-03-06 13:00:00 9.1 15 Oeste 52 Oeste 0.6 -- -- 67
2020-03-06 12:00:00 8.1 18 Noroeste 40 Norte 0.6 -- -- 74
2020-03-06 11:00:00 5.6 10 Oeste 33 Sudoeste 5 -- -- 83
2020-03-06 10:00:00 5.7 4 Sur 15 Sur 1 -- -- 88
2020-03-06 09:00:00 5.3 5 Sudoeste 18 Sudoeste 2.4 -- -- 86
2020-03-06 08:00:00 5.8 8 Oeste 35 Oeste 3 -- -- 86
2020-03-06 07:00:00 6.2 7 Oeste 45 Oeste 1.4 -- -- 80
2020-03-06 06:00:00 7 16 Oeste 41 Oeste 1.6 -- -- 80
2020-03-06 05:00:00 8.1 10 Oeste 24 Sudoeste 0.2 -- -- 74
2020-03-06 04:00:00 6.5 5 Sudeste 11 Sur 0 -- -- 83
2020-03-06 03:00:00 6.6 4 Sudoeste 9 Sudoeste 0 -- -- 85
2020-03-06 02:00:00 6.7 4 Oeste 8 Oeste 0 -- -- 84
2020-03-06 01:00:00 7.8 5 Sudeste 12 Sudeste 0 -- -- 78
2020-03-06 00:00:00 8.5 4 Sur 9 Sudeste 0 -- -- 77
2020-03-05 23:00:00 8.7 3 Sur 11 Sudeste 0 -- -- 79
2020-03-05 22:00:00 8.3 6 Sudeste 20 Noroeste 0.4 -- -- 86
2020-03-05 21:00:00 9 9 Oeste 25 Oeste 1 -- -- 82
2020-03-05 20:00:00 9.4 9 Noroeste 36 Oeste 0 -- -- 75
2020-03-05 19:00:00 9.9 6 Oeste 27 Noroeste 0 -- -- 70
2020-03-05 18:00:00 10 12 Oeste 42 Oeste 0.6 -- -- 76
2020-03-05 17:00:00 10.4 15 Noroeste 39 Sudoeste 0.8 -- -- 77
2020-03-05 16:00:00 10.7 17 Noroeste 52 Oeste 0.8 -- -- 79
2020-03-05 15:00:00 12.1 18 Noroeste 42 Oeste 0.2 -- -- 72
2020-03-05 14:00:00 13.3 10 Oeste 26 Sudoeste 0 -- -- 70
2020-03-05 13:00:00 12.2 3 Nordeste 15 Sudeste 0 -- -- 81
2020-03-05 12:00:00 10.9 6 Sudeste 16 Sudoeste 0.8 -- -- 90
2020-03-05 11:00:00 10.4 6 Sudoeste 30 Oeste 3.6 -- -- 89
2020-03-05 10:00:00 10.7 13 Oeste 34 Oeste 3.6 -- -- 88
2020-03-05 09:00:00 11.4 17 Sudoeste 50 Sudoeste 4.2 -- -- 86
2020-03-05 08:00:00 16.7 17 Oeste 60 Oeste 0 -- -- 57
2020-03-05 07:00:00 16.9 18 Oeste 52 Oeste 0.4 -- -- 57
2020-03-05 06:00:00 16.8 9 Sur 30 Oeste 0 -- -- 59
2020-03-05 05:00:00 17 13 Sudeste 40 Sur 0 -- -- 57
2020-03-05 04:00:00 16.7 7 Este 34 Oeste 0 -- -- 58
2020-03-05 03:00:00 16.1 8 Sur 16 Sudoeste 0 -- -- 60
2020-03-05 02:00:00 15.9 6 Sudeste 17 Sudeste 0 -- -- 62
2020-03-05 01:00:00 14.7 4 Sudeste 8 Sudeste 0 -- -- 71
2020-03-05 00:00:00 13.8 3 Sudoeste 10 Sudoeste 0 -- -- 78